Time;durP1;ratioP1;P1;durP2;ratioP2;P2;SDS_P1;SDS_P2;PMS_P1;PMS_P2;Temp;Humidity;BMP_temperature;BMP_pressure;BME280_temperature;BME280_humidity;BME280_pressure;Samples;Min_cycle;Max_cycle;Signal;HPM_P1;HPM_P2
2022/11/05 00:10:22;;;;;;;10.85;6.00;;;;;;;;;;5071154;28;20047;-73
2022/11/05 00:18:17;;;;;;;11.35;6.68;;;;;;;;;;5083600;28;20089;-74
2022/11/05 00:20:43;;;;;;;14.35;7.57;;;;;;;;;;5071441;28;20756;-73
2022/11/05 00:25:58;;;;;;;13.60;7.35;;;;;;;;;;5069005;28;20082;-73
2022/11/05 00:28:25;;;;;;;13.38;8.27;;;;;;;;;;5085883;28;20031;-73
2022/11/05 00:30:52;;;;;;;14.45;9.07;;;;;;;;;;5090332;28;20032;-73
2022/11/05 00:33:18;;;;;;;12.77;8.57;;;;;;;;;;5087967;28;20028;-73
2022/11/05 00:35:44;;;;;;;16.38;10.05;;;;;;;;;;5089129;28;20039;-74
2022/11/05 00:38:10;;;;;;;13.73;8.50;;;;;;;;;;5072328;28;20396;-74
2022/11/05 00:40:36;;;;;;;13.90;9.07;;;;;;;;;;5083666;28;20095;-74
2022/11/05 00:45:46;;;;;;;13.60;8.70;;;;;;;;;;5085221;28;20410;-74
2022/11/05 00:50:57;;;;;;;13.63;8.45;;;;;;;;;;5084701;28;20100;-74
2022/11/05 00:53:23;;;;;;;15.73;9.18;;;;;;;;;;5077345;28;20619;-73
2022/11/05 00:55:49;;;;;;;13.50;8.80;;;;;;;;;;5090259;28;20040;-73
2022/11/05 00:58:16;;;;;;;17.15;11.40;;;;;;;;;;5078602;28;20027;-74
2022/11/05 01:00:44;;;;;;;15.38;10.18;;;;;;;;;;5096282;28;20040;-73
2022/11/05 01:03:11;;;;;;;18.80;11.40;;;;;;;;;;5084234;28;20033;-74
2022/11/05 01:05:39;;;;;;;15.63;10.43;;;;;;;;;;5096449;28;20043;-73
2022/11/05 01:08:05;;;;;;;16.30;9.98;;;;;;;;;;5086525;28;20390;-74
2022/11/05 01:10:31;;;;;;;16.23;10.32;;;;;;;;;;5093979;28;20036;-73
2022/11/05 01:12:58;;;;;;;15.35;9.73;;;;;;;;;;5084912;28;20476;-74
2022/11/05 01:15:24;;;;;;;14.00;9.48;;;;;;;;;;5090029;28;20032;-74
2022/11/05 01:17:51;;;;;;;14.52;10.20;;;;;;;;;;5087381;28;20189;-74
2022/11/05 01:20:17;;;;;;;21.15;13.60;;;;;;;;;;5090090;28;20032;-74
2022/11/05 01:22:43;;;;;;;13.95;8.77;;;;;;;;;;5084622;28;20021;-74
2022/11/05 01:25:09;;;;;;;11.95;7.57;;;;;;;;;;5090000;28;20040;-74
2022/11/05 01:27:35;;;;;;;11.23;6.50;;;;;;;;;;5091547;28;20488;-73
2022/11/05 01:30:02;;;;;;;13.60;7.40;;;;;;;;;;5085933;28;20358;-74
2022/11/05 01:32:28;;;;;;;19.50;9.60;;;;;;;;;;5084568;28;20024;-74
2022/11/05 01:34:54;;;;;;;14.25;6.95;;;;;;;;;;5083479;28;20972;-74
2022/11/05 01:37:20;;;;;;;11.82;6.22;;;;;;;;;;5085432;28;20031;-74
2022/11/05 01:39:46;;;;;;;13.00;6.95;;;;;;;;;;5086867;28;20170;-74
2022/11/05 01:42:14;;;;;;;13.48;7.85;;;;;;;;;;5094430;28;20067;-74
2022/11/05 01:44:59;;;;;;;13.07;7.28;;;;;;;;;;5078942;28;20158;-74
2022/11/05 01:47:27;;;;;;;13.27;7.75;;;;;;;;;;5096973;28;20127;-73
2022/11/05 01:49:54;;;;;;;14.90;8.88;;;;;;;;;;5085814;28;20043;-74
2022/11/05 01:52:20;;;;;;;17.88;9.90;;;;;;;;;;5088110;28;20024;-73
2022/11/05 01:54:46;;;;;;;14.25;8.52;;;;;;;;;;5079613;28;20358;-73
2022/11/05 01:57:14;;;;;;;15.50;10.10;;;;;;;;;;5087330;28;20028;-74
2022/11/05 01:59:42;;;;;;;13.82;9.38;;;;;;;;;;5083179;28;20135;-74
2022/11/05 02:02:08;;;;;;;17.23;10.63;;;;;;;;;;5085707;28;20028;-74
2022/11/05 02:04:38;;;;;;;14.05;10.05;;;;;;;;;;5079426;28;20105;-74
2022/11/05 02:07:05;;;;;;;12.35;8.32;;;;;;;;;;5093397;28;20089;-74
2022/11/05 02:09:34;;;;;;;11.73;7.95;;;;;;;;;;5074152;28;20488;-73
2022/11/05 02:12:00;;;;;;;14.63;10.57;;;;;;;;;;5085835;28;20042;-73
2022/11/05 02:14:26;;;;;;;20.30;13.00;;;;;;;;;;5089676;28;20455;-73
2022/11/05 02:16:56;;;;;;;18.75;11.35;;;;;;;;;;5089020;28;20028;-73
2022/11/05 02:19:22;;;;;;;16.00;11.52;;;;;;;;;;5074882;28;20086;-74
2022/11/05 02:21:50;;;;;;;13.35;9.35;;;;;;;;;;5076328;28;20032;-74
2022/11/05 02:24:37;;;;;;;15.75;10.45;;;;;;;;;;5080584;28;20040;-73
2022/11/05 02:27:15;;;;;;;12.90;9.75;;;;;;;;;;5085242;28;20382;-74
2022/11/05 02:29:44;;;;;;;15.00;8.85;;;;;;;;;;5079766;28;20115;-73
2022/11/05 02:32:16;;;;;;;14.82;9.23;;;;;;;;;;5089984;28;20492;-74
2022/11/05 02:34:42;;;;;;;15.98;10.57;;;;;;;;;;5087584;28;20461;-74
2022/11/05 02:37:19;;;;;;;14.77;9.52;;;;;;;;;;5086826;28;20027;-74
2022/11/05 02:39:48;;;;;;;14.93;7.85;;;;;;;;;;5088371;28;20033;-73
2022/11/05 02:42:27;;;;;;;11.20;7.60;;;;;;;;;;5091735;28;20027;-73
2022/11/05 02:45:17;;;;;;;13.55;7.82;;;;;;;;;;5085084;28;20040;-74
2022/11/05 02:48:05;;;;;;;10.10;6.55;;;;;;;;;;5062534;28;20068;-74
2022/11/05 02:50:35;;;;;;;11.60;7.60;;;;;;;;;;5081715;28;20036;-73
2022/11/05 02:53:10;;;;;;;12.57;8.82;;;;;;;;;;5086176;28;20024;-73
2022/11/05 02:55:46;;;;;;;13.15;9.45;;;;;;;;;;5088741;28;20040;-73
2022/11/05 02:58:12;;;;;;;11.45;7.53;;;;;;;;;;5084854;28;20028;-74
2022/11/05 03:00:44;;;;;;;13.70;7.50;;;;;;;;;;5088783;28;20039;-74
2022/11/05 03:03:14;;;;;;;9.65;5.00;;;;;;;;;;5071666;28;20032;-74
2022/11/05 03:05:46;;;;;;;11.75;5.07;;;;;;;;;;5077462;28;20466;-74
2022/11/05 03:08:16;;;;;;;8.93;4.70;;;;;;;;;;5077244;28;20756;-74
2022/11/05 03:10:49;;;;;;;12.90;5.88;;;;;;;;;;5087301;28;20050;-74
2022/11/05 03:13:18;;;;;;;10.68;6.10;;;;;;;;;;5076874;28;20480;-74
2022/11/05 03:15:50;;;;;;;10.30;5.20;;;;;;;;;;5086029;28;20135;-74
2022/11/05 03:18:19;;;;;;;7.45;4.47;;;;;;;;;;5087582;28;20770;-74
2022/11/05 03:20:45;;;;;;;9.73;5.00;;;;;;;;;;5095810;28;20081;-74
2022/11/05 03:23:18;;;;;;;8.43;5.18;;;;;;;;;;5083280;28;20028;-74
2022/11/05 03:25:49;;;;;;;13.60;7.85;;;;;;;;;;5079341;28;20036;-74
2022/11/05 03:28:16;;;;;;;10.80;7.75;;;;;;;;;;5076397;28;20488;-74
2022/11/05 03:30:43;;;;;;;14.48;9.10;;;;;;;;;;5095606;28;20102;-74
2022/11/05 03:33:15;;;;;;;12.73;7.63;;;;;;;;;;5083998;28;20807;-74
2022/11/05 03:35:45;;;;;;;11.00;7.40;;;;;;;;;;5075676;28;20075;-74
2022/11/05 03:38:13;;;;;;;12.90;6.70;;;;;;;;;;5082188;28;20024;-74
2022/11/05 03:40:41;;;;;;;9.07;6.22;;;;;;;;;;5082004;28;20522;-74
2022/11/05 03:43:07;;;;;;;9.75;6.03;;;;;;;;;;5086912;28;20035;-74
2022/11/05 03:45:36;;;;;;;9.93;6.55;;;;;;;;;;5082140;28;20036;-74
2022/11/05 03:48:04;;;;;;;14.10;6.63;;;;;;;;;;5086561;28;20047;-74
2022/11/05 03:50:36;;;;;;;14.27;6.45;;;;;;;;;;5094788;28;20376;-74
2022/11/05 03:53:05;;;;;;;11.07;6.68;;;;;;;;;;5080181;28;20028;-74
2022/11/05 03:55:46;;;;;;;10.73;6.32;;;;;;;;;;5089823;28;20124;-73
2022/11/05 03:58:12;;;;;;;20.67;7.40;;;;;;;;;;5079325;28;20039;-74
2022/11/05 04:00:38;;;;;;;16.35;6.40;;;;;;;;;;5073144;28;20049;-74
2022/11/05 04:03:04;;;;;;;9.98;6.28;;;;;;;;;;5078409;28;20058;-74
2022/11/05 04:05:30;;;;;;;11.18;6.50;;;;;;;;;;5085149;28;20547;-74
2022/11/05 04:13:26;;;;;;;16.00;7.55;;;;;;;;;;5074115;28;20047;-74
2022/11/05 04:18:38;;;;;;;17.15;11.73;;;;;;;;;;5077751;28;20056;-74
2022/11/05 04:24:07;;;;;;;20.15;14.30;;;;;;;;;;5080704;28;20094;-74
2022/11/05 04:26:37;;;;;;;14.80;9.80;;;;;;;;;;5077532;28;20035;-74
2022/11/05 04:31:48;;;;;;;9.85;5.70;;;;;;;;;;5087457;28;20076;-73
2022/11/05 04:34:15;;;;;;;8.20;5.28;;;;;;;;;;5082319;28;20028;-73
2022/11/05 04:36:41;;;;;;;10.18;5.78;;;;;;;;;;5072859;28;20028;-74
2022/11/05 04:39:07;;;;;;;9.90;6.18;;;;;;;;;;5084153;28;20473;-73
2022/11/05 04:41:33;;;;;;;11.02;6.40;;;;;;;;;;5085627;28;20034;-74
2022/11/05 04:43:59;;;;;;;11.88;6.78;;;;;;;;;;5074351;28;20040;-74
2022/11/05 04:46:25;;;;;;;11.80;7.35;;;;;;;;;;5073654;28;20059;-73
2022/11/05 04:48:51;;;;;;;11.00;6.10;;;;;;;;;;5087459;28;20036;-74
2022/11/05 04:51:17;;;;;;;11.40;6.35;;;;;;;;;;5085669;28;20459;-74
2022/11/05 04:53:43;;;;;;;12.48;6.68;;;;;;;;;;5088324;28;20067;-73
2022/11/05 04:56:28;;;;;;;12.02;6.78;;;;;;;;;;5080008;28;20036;-74
2022/11/05 04:58:54;;;;;;;12.13;6.40;;;;;;;;;;5082815;28;20032;-73
2022/11/05 05:01:21;;;;;;;10.65;5.55;;;;;;;;;;5082504;28;20039;-73
2022/11/05 05:03:47;;;;;;;9.63;5.68;;;;;;;;;;5083174;28;20059;-73
2022/11/05 05:06:13;;;;;;;10.40;5.88;;;;;;;;;;5081071;28;20036;-73
2022/11/05 05:08:40;;;;;;;9.63;6.65;;;;;;;;;;5085550;28;20024;-74
2022/11/05 05:11:07;;;;;;;11.13;6.10;;;;;;;;;;5079677;28;20040;-73
2022/11/05 05:13:33;;;;;;;10.00;7.05;;;;;;;;;;5092180;28;20082;-74
2022/11/05 05:15:59;;;;;;;12.75;7.38;;;;;;;;;;5081990;28;20489;-73
2022/11/05 05:18:25;;;;;;;9.63;6.30;;;;;;;;;;5089018;28;20094;-73
2022/11/05 05:23:36;;;;;;;15.32;9.55;;;;;;;;;;5084633;28;20101;-73
2022/11/05 05:26:02;;;;;;;13.25;9.00;;;;;;;;;;5091022;28;20548;-73
2022/11/05 05:28:28;;;;;;;12.80;9.20;;;;;;;;;;5081356;28;20013;-73
2022/11/05 05:30:57;;;;;;;11.05;7.88;;;;;;;;;;5083939;28;20713;-74
2022/11/05 05:33:23;;;;;;;13.35;9.48;;;;;;;;;;5085841;28;20025;-73
2022/11/05 05:35:49;;;;;;;13.35;9.23;;;;;;;;;;5089835;28;20044;-73
2022/11/05 05:38:15;;;;;;;11.93;8.93;;;;;;;;;;5081593;28;20024;-73
2022/11/05 05:40:41;;;;;;;12.55;8.70;;;;;;;;;;5074965;28;20043;-73
2022/11/05 05:43:07;;;;;;;17.50;10.48;;;;;;;;;;5079308;28;20032;-74
2022/11/05 05:45:34;;;;;;;15.02;9.90;;;;;;;;;;5091449;28;20039;-74
2022/11/05 05:48:01;;;;;;;14.15;9.77;;;;;;;;;;5090932;28;20119;-74
2022/11/05 05:50:27;;;;;;;16.15;10.38;;;;;;;;;;5089760;28;20039;-73
2022/11/05 05:52:53;;;;;;;17.80;11.60;;;;;;;;;;5083123;28;20028;-73
2022/11/05 05:55:19;;;;;;;19.35;14.82;;;;;;;;;;5104955;28;20043;-74
2022/11/05 05:57:46;;;;;;;17.08;11.57;;;;;;;;;;5081826;28;20040;-73
2022/11/05 06:00:12;;;;;;;29.60;21.90;;;;;;;;;;5091394;28;20054;-74
2022/11/05 06:02:38;;;;;;;30.10;18.20;;;;;;;;;;5090653;28;20028;-74
2022/11/05 06:05:04;;;;;;;21.00;14.00;;;;;;;;;;5073007;28;20032;-73
2022/11/05 06:07:30;;;;;;;16.58;12.65;;;;;;;;;;5092371;28;20044;-73
2022/11/05 06:09:56;;;;;;;18.63;14.10;;;;;;;;;;5083689;28;20058;-73
2022/11/05 06:12:22;;;;;;;16.70;12.82;;;;;;;;;;5086884;28;20028;-74
2022/11/05 06:14:48;;;;;;;17.75;13.10;;;;;;;;;;5080238;28;20036;-73
2022/11/05 06:17:14;;;;;;;16.45;11.93;;;;;;;;;;5091801;28;20084;-73
2022/11/05 06:19:40;;;;;;;19.95;14.30;;;;;;;;;;5085099;28;20067;-73
2022/11/05 06:22:06;;;;;;;18.40;11.55;;;;;;;;;;5080909;28;20075;-74
2022/11/05 06:24:32;;;;;;;14.82;11.75;;;;;;;;;;5078536;28;20039;-74
2022/11/05 06:26:59;;;;;;;29.45;18.42;;;;;;;;;;5085252;28;20032;-74
2022/11/05 06:29:25;;;;;;;23.73;17.85;;;;;;;;;;5095777;28;20536;-74
2022/11/05 06:31:51;;;;;;;19.70;12.52;;;;;;;;;;5087382;28;20069;-73
2022/11/05 06:34:17;;;;;;;11.88;8.50;;;;;;;;;;5081567;28;20046;-74
2022/11/05 06:36:43;;;;;;;13.43;8.88;;;;;;;;;;5083536;28;20536;-74
2022/11/05 06:39:10;;;;;;;11.07;7.38;;;;;;;;;;5088623;28;20032;-74
2022/11/05 06:41:36;;;;;;;9.77;6.07;;;;;;;;;;5080777;28;20051;-73
2022/11/05 06:44:02;;;;;;;11.93;7.13;;;;;;;;;;5083336;28;20036;-74
2022/11/05 06:46:28;;;;;;;14.60;8.13;;;;;;;;;;5085681;28;20064;-73
2022/11/05 06:48:54;;;;;;;15.90;10.13;;;;;;;;;;5078509;28;20127;-74
2022/11/05 06:51:20;;;;;;;16.42;10.63;;;;;;;;;;5079202;28;20394;-73
2022/11/05 06:53:46;;;;;;;14.57;9.10;;;;;;;;;;5083994;28;20028;-74
2022/11/05 06:56:12;;;;;;;18.27;12.32;;;;;;;;;;5079821;28;20716;-74
2022/11/05 06:58:38;;;;;;;17.58;12.85;;;;;;;;;;5075761;28;20034;-73
2022/11/05 07:01:06;;;;;;;15.48;10.13;;;;;;;;;;5082407;28;20060;-73
2022/11/05 07:03:32;;;;;;;16.55;12.00;;;;;;;;;;5084997;28;20024;-73
2022/11/05 07:05:59;;;;;;;16.00;11.63;;;;;;;;;;5079118;28;20032;-73
2022/11/05 07:08:25;;;;;;;16.05;11.52;;;;;;;;;;5082721;28;20165;-73
2022/11/05 07:10:51;;;;;;;21.25;15.90;;;;;;;;;;5082513;28;20046;-74
2022/11/05 07:13:17;;;;;;;30.42;21.73;;;;;;;;;;5082595;28;20031;-74
2022/11/05 07:15:44;;;;;;;20.70;15.88;;;;;;;;;;5087269;28;20081;-74
2022/11/05 07:18:10;;;;;;;17.35;11.85;;;;;;;;;;5077620;28;20500;-74
2022/11/05 07:20:36;;;;;;;14.60;9.75;;;;;;;;;;5080546;28;20033;-74
2022/11/05 07:23:10;;;;;;;13.88;10.65;;;;;;;;;;5085849;28;20039;-73
2022/11/05 07:25:36;;;;;;;14.45;9.45;;;;;;;;;;5082352;28;20035;-73
2022/11/05 07:28:02;;;;;;;14.70;9.25;;;;;;;;;;5074744;28;20017;-73
2022/11/05 07:30:28;;;;;;;15.35;10.10;;;;;;;;;;5080984;28;21192;-73
2022/11/05 07:32:54;;;;;;;15.30;10.73;;;;;;;;;;5082679;28;20036;-74
2022/11/05 07:35:22;;;;;;;15.90;11.00;;;;;;;;;;5086000;28;20518;-73
2022/11/05 07:37:49;;;;;;;16.77;12.63;;;;;;;;;;5078282;28;20077;-74
2022/11/05 07:40:19;;;;;;;15.25;13.18;;;;;;;;;;5082152;28;20473;-73
2022/11/05 07:42:46;;;;;;;14.63;10.35;;;;;;;;;;5076052;28;20491;-74
2022/11/05 07:45:12;;;;;;;15.55;11.55;;;;;;;;;;5078681;28;20044;-73
2022/11/05 07:47:45;;;;;;;14.35;9.73;;;;;;;;;;5078010;28;20044;-73
2022/11/05 07:50:12;;;;;;;13.80;8.57;;;;;;;;;;5082628;28;20040;-74
2022/11/05 07:52:38;;;;;;;10.85;6.55;;;;;;;;;;5081907;28;20047;-73
2022/11/05 07:55:04;;;;;;;9.40;6.25;;;;;;;;;;5076742;28;20029;-74
2022/11/05 07:57:30;;;;;;;11.82;7.30;;;;;;;;;;5077485;28;20036;-74
2022/11/05 07:59:56;;;;;;;14.02;7.53;;;;;;;;;;5083738;28;20034;-73
2022/11/05 08:02:22;;;;;;;8.88;6.57;;;;;;;;;;5080593;28;20039;-74
2022/11/05 08:04:48;;;;;;;11.43;7.53;;;;;;;;;;5083103;28;20032;-74
2022/11/05 08:07:14;;;;;;;12.07;6.88;;;;;;;;;;5084688;28;20426;-74
2022/11/05 08:09:40;;;;;;;9.98;6.50;;;;;;;;;;5083545;28;20031;-74
2022/11/05 08:12:06;;;;;;;10.57;6.50;;;;;;;;;;5076158;28;20038;-74
2022/11/05 08:14:32;;;;;;;10.82;5.72;;;;;;;;;;5079095;28;20135;-74
2022/11/05 08:16:58;;;;;;;11.43;6.57;;;;;;;;;;5078423;28;20781;-74
2022/11/05 08:19:24;;;;;;;11.15;6.43;;;;;;;;;;5077809;28;20070;-74
2022/11/05 08:21:50;;;;;;;10.48;6.47;;;;;;;;;;5084221;28;20032;-74
2022/11/05 08:24:16;;;;;;;12.93;7.15;;;;;;;;;;5080575;28;20073;-74
2022/11/05 08:26:42;;;;;;;10.63;7.65;;;;;;;;;;5079633;28;20029;-74
2022/11/05 08:29:08;;;;;;;9.90;7.03;;;;;;;;;;5079825;28;20048;-74
2022/11/05 08:31:35;;;;;;;10.32;6.85;;;;;;;;;;5083961;28;20028;-74
2022/11/05 08:34:02;;;;;;;11.57;7.00;;;;;;;;;;5082816;28;20035;-74
2022/11/05 08:36:28;;;;;;;11.60;7.30;;;;;;;;;;5080988;28;20059;-74
2022/11/05 08:38:54;;;;;;;9.70;6.45;;;;;;;;;;5076322;28;20834;-74
2022/11/05 08:41:20;;;;;;;11.65;6.30;;;;;;;;;;5079762;28;20047;-74
2022/11/05 08:43:45;;;;;;;11.05;7.53;;;;;;;;;;5086796;28;20023;-74
2022/11/05 08:46:11;;;;;;;10.57;7.22;;;;;;;;;;5079874;28;20048;-74
2022/11/05 08:48:37;;;;;;;11.65;7.97;;;;;;;;;;5083914;28;20028;-74
2022/11/05 08:51:03;;;;;;;9.90;5.75;;;;;;;;;;5083318;28;20051;-74
2022/11/05 08:53:29;;;;;;;11.30;6.47;;;;;;;;;;5069432;28;20108;-74
2022/11/05 08:55:59;;;;;;;13.07;8.35;;;;;;;;;;5084540;28;20102;-74
2022/11/05 08:58:25;;;;;;;10.38;8.23;;;;;;;;;;5069149;28;20068;-74
2022/11/05 09:00:51;;;;;;;9.27;6.65;;;;;;;;;;5084206;28;20358;-74
2022/11/05 09:03:17;;;;;;;9.63;6.57;;;;;;;;;;5092264;28;20032;-73
2022/11/05 09:05:43;;;;;;;9.73;5.65;;;;;;;;;;5085221;28;20040;-74
2022/11/05 09:08:11;;;;;;;9.45;6.18;;;;;;;;;;5093334;28;20043;-74
2022/11/05 09:10:37;;;;;;;8.85;4.22;;;;;;;;;;5084593;28;20036;-74
2022/11/05 09:13:03;;;;;;;5.93;3.90;;;;;;;;;;5082147;28;20070;-74
2022/11/05 09:15:30;;;;;;;10.48;7.13;;;;;;;;;;5085866;28;20060;-74
2022/11/05 09:17:56;;;;;;;12.45;6.88;;;;;;;;;;5083115;28;20377;-74
2022/11/05 09:20:22;;;;;;;9.30;6.75;;;;;;;;;;5084707;28;20602;-74
2022/11/05 09:22:48;;;;;;;9.93;6.18;;;;;;;;;;5088534;28;20032;-74
2022/11/05 09:25:14;;;;;;;7.80;5.25;;;;;;;;;;5096839;28;20122;-74
2022/11/05 09:27:40;;;;;;;15.13;7.00;;;;;;;;;;5088899;28;20028;-74
2022/11/05 09:30:07;;;;;;;5.15;2.00;;;;;;;;;;5088099;28;20060;-74
2022/11/05 09:32:33;;;;;;;5.05;2.20;;;;;;;;;;5091001;28;20063;-74
2022/11/05 09:35:00;;;;;;;6.18;3.05;;;;;;;;;;5081227;28;20543;-74
2022/11/05 09:37:26;;;;;;;4.03;2.40;;;;;;;;;;5086984;28;20012;-74
2022/11/05 09:39:52;;;;;;;5.25;2.58;;;;;;;;;;5074933;28;20029;-74
2022/11/05 09:42:19;;;;;;;15.90;10.15;;;;;;;;;;5085169;28;20126;-74
2022/11/05 09:44:51;;;;;;;7.13;3.85;;;;;;;;;;5085377;28;20454;-74
2022/11/05 09:47:19;;;;;;;36.63;25.15;;;;;;;;;;5087802;28;20040;-74
2022/11/05 09:49:48;;;;;;;10.63;6.97;;;;;;;;;;5091192;28;20047;-74
2022/11/05 09:52:18;;;;;;;9.02;4.40;;;;;;;;;;5087015;28;20064;-74
2022/11/05 09:54:44;;;;;;;7.22;4.28;;;;;;;;;;5078079;28;20090;-74
2022/11/05 09:57:13;;;;;;;6.30;3.85;;;;;;;;;;5085235;28;20012;-74
2022/11/05 09:59:48;;;;;;;8.48;4.32;;;;;;;;;;5078672;28;20062;-74
2022/11/05 10:02:23;;;;;;;11.52;5.55;;;;;;;;;;5089240;28;20024;-74
2022/11/05 10:04:52;;;;;;;7.80;4.60;;;;;;;;;;5081417;28;20044;-74
2022/11/05 10:07:20;;;;;;;6.55;3.80;;;;;;;;;;5092425;28;20145;-74
2022/11/05 10:09:47;;;;;;;6.75;3.65;;;;;;;;;;5085576;28;20047;-74
2022/11/05 10:12:34;;;;;;;5.05;2.55;;;;;;;;;;5085443;28;20370;-74
2022/11/05 10:15:09;;;;;;;7.03;2.97;;;;;;;;;;5085256;28;20105;-74
2022/11/05 10:17:36;;;;;;;7.30;2.60;;;;;;;;;;5086256;28;20024;-74
2022/11/05 10:20:22;;;;;;;10.40;2.55;;;;;;;;;;5088748;28;20043;-74
2022/11/05 10:22:48;;;;;;;7.63;2.90;;;;;;;;;;5088349;28;20030;-74
2022/11/05 10:25:17;;;;;;;5.30;2.30;;;;;;;;;;5086240;28;20036;-74
2022/11/05 10:27:44;;;;;;;7.70;1.77;;;;;;;;;;5083035;28;20111;-74
2022/11/05 10:30:14;;;;;;;3.55;1.50;;;;;;;;;;5083881;28;20054;-74
2022/11/05 10:32:41;;;;;;;2.92;1.17;;;;;;;;;;5087013;28;20031;-74
2022/11/05 10:35:08;;;;;;;4.00;1.20;;;;;;;;;;5084252;28;20107;-74
2022/11/05 10:37:35;;;;;;;6.07;1.80;;;;;;;;;;5080981;28;20399;-74
2022/11/05 10:40:01;;;;;;;3.85;2.00;;;;;;;;;;5086667;28;20039;-74
2022/11/05 10:42:33;;;;;;;5.95;2.08;;;;;;;;;;5083646;28;20031;-74
2022/11/05 10:45:02;;;;;;;5.60;1.98;;;;;;;;;;5078062;28;20516;-74
2022/11/05 10:47:48;;;;;;;5.43;2.05;;;;;;;;;;5080688;28;20390;-74
2022/11/05 10:50:23;;;;;;;5.65;1.90;;;;;;;;;;5081261;28;20039;-74
2022/11/05 10:52:52;;;;;;;3.28;1.13;;;;;;;;;;5088306;28;20063;-74
2022/11/05 10:55:21;;;;;;;5.43;2.05;;;;;;;;;;5077357;28;20143;-74
2022/11/05 10:57:50;;;;;;;3.55;1.17;;;;;;;;;;5087317;28;20055;-74
2022/11/05 11:00:17;;;;;;;2.90;0.95;;;;;;;;;;5078758;28;20059;-74
2022/11/05 11:02:59;;;;;;;2.85;0.60;;;;;;;;;;5079176;28;20101;-74
2022/11/05 11:05:27;;;;;;;0.50;0.10;;;;;;;;;;5079753;28;20521;-74
2022/11/05 11:08:04;;;;;;;0.15;0.00;;;;;;;;;;5079110;28;20036;-74
2022/11/05 11:10:33;;;;;;;1.05;0.20;;;;;;;;;;5080144;28;20024;-75
2022/11/05 11:12:59;;;;;;;0.45;0.17;;;;;;;;;;5087243;28;20758;-74
2022/11/05 11:15:26;;;;;;;1.42;0.40;;;;;;;;;;5080352;28;20059;-74
2022/11/05 11:17:52;;;;;;;1.73;0.50;;;;;;;;;;5085892;28;20028;-74
2022/11/05 11:20:21;;;;;;;2.83;0.80;;;;;;;;;;5083208;28;20427;-74
2022/11/05 11:23:06;;;;;;;2.25;0.70;;;;;;;;;;5087106;28;20584;-74
2022/11/05 11:25:41;;;;;;;3.53;1.08;;;;;;;;;;5082582;28;20047;-74
2022/11/05 11:28:13;;;;;;;3.97;0.90;;;;;;;;;;5079358;28;20093;-74
2022/11/05 11:30:46;;;;;;;4.55;0.90;;;;;;;;;;5090535;28;20040;-74
2022/11/05 11:33:12;;;;;;;1.00;0.40;;;;;;;;;;5087034;28;20021;-74
2022/11/05 11:35:38;;;;;;;1.02;0.30;;;;;;;;;;5080101;28;20083;-74
2022/11/05 11:38:04;;;;;;;1.67;0.30;;;;;;;;;;5077999;28;20036;-74
2022/11/05 11:40:35;;;;;;;2.45;0.50;;;;;;;;;;5076100;28;20036;-74
2022/11/05 11:43:04;;;;;;;0.88;0.30;;;;;;;;;;5086330;28;20039;-74
2022/11/05 11:45:35;;;;;;;1.20;0.40;;;;;;;;;;5081108;28;20063;-74
2022/11/05 11:48:04;;;;;;;1.95;0.40;;;;;;;;;;5083453;28;20052;-74
2022/11/05 11:50:40;;;;;;;2.72;0.60;;;;;;;;;;5081153;28;20518;-74
2022/11/05 11:53:21;;;;;;;1.95;0.50;;;;;;;;;;5084591;28;20092;-74
2022/11/05 11:56:01;;;;;;;2.55;0.75;;;;;;;;;;5084774;28;20107;-74
2022/11/05 11:58:44;;;;;;;5.03;1.00;;;;;;;;;;5084731;28;20073;-74
2022/11/05 12:01:26;;;;;;;4.50;0.80;;;;;;;;;;5079829;28;20024;-74
2022/11/05 12:03:52;;;;;;;2.50;0.80;;;;;;;;;;5077740;28;20036;-74
2022/11/05 12:06:37;;;;;;;3.90;1.20;;;;;;;;;;5078414;28;20024;-74
2022/11/05 12:09:12;;;;;;;2.80;0.90;;;;;;;;;;5077758;28;20048;-74
2022/11/05 12:11:56;;;;;;;3.80;1.17;;;;;;;;;;5081819;28;20076;-74
2022/11/05 12:14:41;;;;;;;6.68;1.20;;;;;;;;;;5082899;28;20039;-74
2022/11/05 12:17:22;;;;;;;2.72;1.00;;;;;;;;;;5078116;28;20039;-74
2022/11/05 12:20:01;;;;;;;4.53;1.67;;;;;;;;;;5086835;28;20029;-74
2022/11/05 12:22:46;;;;;;;3.95;1.25;;;;;;;;;;5075737;28;20082;-74
2022/11/05 12:25:12;;;;;;;5.32;2.15;;;;;;;;;;5085472;28;20089;-74
2022/11/05 12:27:38;;;;;;;2.63;1.00;;;;;;;;;;5080054;28;20028;-74
2022/11/05 12:30:22;;;;;;;2.85;0.95;;;;;;;;;;5084674;28;20040;-74
2022/11/05 12:32:54;;;;;;;3.67;1.30;;;;;;;;;;5082270;28;20461;-74
2022/11/05 12:35:20;;;;;;;2.15;0.90;;;;;;;;;;5089570;28;20361;-74
2022/11/05 12:37:56;;;;;;;2.92;1.00;;;;;;;;;;5092989;28;20035;-74
2022/11/05 12:40:25;;;;;;;2.50;0.80;;;;;;;;;;5086296;28;20062;-74
2022/11/05 12:42:51;;;;;;;2.38;1.00;;;;;;;;;;5090100;28;20032;-74
2022/11/05 12:45:27;;;;;;;2.95;0.75;;;;;;;;;;5086814;28;20043;-74
2022/11/05 12:48:11;;;;;;;2.35;0.88;;;;;;;;;;5083685;28;20101;-75
2022/11/05 12:50:43;;;;;;;3.88;0.90;;;;;;;;;;5091614;28;20560;-74
2022/11/05 12:53:32;;;;;;;2.38;0.95;;;;;;;;;;5088415;28;20055;-74
2022/11/05 12:56:00;;;;;;;6.75;0.90;;;;;;;;;;5077969;28;20040;-74
2022/11/05 12:58:35;;;;;;;3.28;1.00;;;;;;;;;;5081734;28;20028;-74
2022/11/05 13:01:15;;;;;;;3.60;1.20;;;;;;;;;;5090773;28;20032;-74
2022/11/05 13:03:44;;;;;;;2.60;0.80;;;;;;;;;;5085652;28;20774;-74
2022/11/05 13:06:16;;;;;;;2.35;0.90;;;;;;;;;;5090711;28;20036;-74
2022/11/05 13:08:47;;;;;;;2.30;0.80;;;;;;;;;;5093037;28;20063;-74
2022/11/05 13:11:19;;;;;;;2.55;0.85;;;;;;;;;;5083834;28;20032;-74
2022/11/05 13:13:51;;;;;;;5.15;0.80;;;;;;;;;;5094261;28;20047;-74
2022/11/05 13:16:27;;;;;;;1.95;0.80;;;;;;;;;;5088340;28;20021;-74
2022/11/05 13:19:04;;;;;;;2.15;0.80;;;;;;;;;;5089573;28;20032;-74
2022/11/05 13:21:31;;;;;;;3.30;0.90;;;;;;;;;;5079450;28;20476;-74
2022/11/05 13:24:20;;;;;;;3.35;1.10;;;;;;;;;;5089001;28;20036;-74
2022/11/05 13:26:49;;;;;;;2.25;0.85;;;;;;;;;;5071224;28;20032;-74
2022/11/05 13:29:15;;;;;;;2.60;0.93;;;;;;;;;;5093717;28;20073;-74
2022/11/05 13:31:53;;;;;;;2.33;0.90;;;;;;;;;;5091674;28;20419;-74
2022/11/05 13:34:19;;;;;;;3.90;1.00;;;;;;;;;;5087296;28;20032;-74
2022/11/05 13:39:40;;;;;;;3.08;0.82;;;;;;;;;;5082297;28;20077;-74
2022/11/05 13:42:25;;;;;;;3.47;1.30;;;;;;;;;;5087779;28;20044;-74
2022/11/05 13:45:00;;;;;;;3.70;1.10;;;;;;;;;;5081635;28;20503;-74
2022/11/05 13:47:26;;;;;;;4.65;1.38;;;;;;;;;;5084125;28;20619;-74
2022/11/05 13:49:52;;;;;;;3.05;1.10;;;;;;;;;;5086794;28;20131;-74
2022/11/05 13:52:37;;;;;;;5.70;2.10;;;;;;;;;;5085698;28;20977;-74
2022/11/05 13:55:21;;;;;;;4.40;1.58;;;;;;;;;;5087979;28;20111;-74
2022/11/05 13:57:53;;;;;;;3.15;0.90;;;;;;;;;;5081382;28;20032;-74
2022/11/05 14:00:19;;;;;;;;;;;;;;;;;;5084246;28;20139;-74
2022/11/05 14:02:57;;;;;;;2.30;1.10;;;;;;;;;;5090750;28;20099;-74
2022/11/05 14:05:27;;;;;;;4.38;1.10;;;;;;;;;;5080579;28;20036;-74
2022/11/05 14:07:53;;;;;;;2.42;0.90;;;;;;;;;;5080985;28;20036;-74
2022/11/05 14:10:22;;;;;;;3.05;1.17;;;;;;;;;;5083968;28;20067;-74
2022/11/05 14:12:50;;;;;;;2.67;0.80;;;;;;;;;;5085074;28;20146;-74
2022/11/05 14:15:19;;;;;;;2.83;0.73;;;;;;;;;;5088044;28;20382;-74
2022/11/05 14:18:05;;;;;;;2.42;1.00;;;;;;;;;;5087373;28;20488;-74
2022/11/05 14:20:30;;;;;;;3.85;1.23;;;;;;;;;;5088719;28;20058;-74
2022/11/05 14:23:15;;;;;;;5.95;1.77;;;;;;;;;;5085866;28;20077;-74
2022/11/05 14:25:44;;;;;;;6.10;1.40;;;;;;;;;;5075801;28;20065;-74
2022/11/05 14:28:37;;;;;;;3.75;1.20;;;;;;;;;;5081101;28;20037;-74
2022/11/05 14:31:19;;;;;;;5.57;1.00;;;;;;;;;;5083121;28;20028;-74
2022/11/05 14:34:04;;;;;;;4.35;1.10;;;;;;;;;;5077285;28;20028;-74
2022/11/05 14:36:31;;;;;;;3.60;0.90;;;;;;;;;;5082815;28;20084;-74
2022/11/05 14:39:18;;;;;;;4.38;0.98;;;;;;;;;;5079743;28;20029;-74
2022/11/05 14:41:51;;;;;;;3.25;1.20;;;;;;;;;;5085005;28;20028;-74
2022/11/05 14:44:17;;;;;;;2.40;0.95;;;;;;;;;;5084182;28;20036;-75
2022/11/05 14:46:48;;;;;;;3.72;1.20;;;;;;;;;;5081222;28;20051;-74
2022/11/05 14:49:16;;;;;;;3.42;0.98;;;;;;;;;;5082796;28;20040;-74
2022/11/05 14:51:47;;;;;;;2.80;1.00;;;;;;;;;;5087450;28;20111;-74
2022/11/05 14:54:16;;;;;;;3.17;1.10;;;;;;;;;;5087399;28;20131;-74
2022/11/05 14:56:44;;;;;;;3.00;1.00;;;;;;;;;;5079878;28;20226;-74
2022/11/05 14:59:27;;;;;;;3.92;0.95;;;;;;;;;;5077121;28;20044;-74
2022/11/05 15:01:56;;;;;;;5.20;1.25;;;;;;;;;;5083459;28;20031;-74
2022/11/05 15:04:26;;;;;;;3.15;0.90;;;;;;;;;;5084752;28;20044;-74
2022/11/05 15:07:04;;;;;;;2.92;1.27;;;;;;;;;;5081484;28;20504;-75
2022/11/05 15:09:36;;;;;;;2.55;0.90;;;;;;;;;;5083635;28;20032;-74
2022/11/05 15:12:07;;;;;;;8.23;2.15;;;;;;;;;;5080307;28;20119;-74
2022/11/05 15:14:35;;;;;;;6.20;1.92;;;;;;;;;;5082289;28;20024;-74
2022/11/05 15:17:20;;;;;;;4.63;2.28;;;;;;;;;;5082809;28;20115;-74
2022/11/05 15:19:47;;;;;;;7.85;3.78;;;;;;;;;;5078470;28;20028;-74
2022/11/05 15:22:22;;;;;;;8.00;4.45;;;;;;;;;;5083725;28;20023;-74
2022/11/05 15:24:48;;;;;;;11.23;5.78;;;;;;;;;;5084794;28;20033;-74
2022/11/05 15:27:19;;;;;;;11.88;6.68;;;;;;;;;;5084704;28;20028;-74
2022/11/05 15:29:45;;;;;;;16.73;8.27;;;;;;;;;;5087859;28;20067;-74